createdAt,value
2019-04-04T00:03:01.782Z,47.11
2019-04-04T00:06:03.735Z,47.49
2019-04-04T00:09:09.046Z,47.22
2019-04-04T00:12:10.949Z,47.34
2019-04-04T00:15:14.765Z,47.30
2019-04-04T00:18:16.870Z,47.43
2019-04-04T00:21:18.870Z,47.76
2019-04-04T00:24:20.989Z,48.04
2019-04-04T00:27:22.997Z,48.11
2019-04-04T00:30:24.907Z,48.03
2019-04-04T00:33:26.850Z,48.20
2019-04-04T00:36:28.802Z,48.18
2019-04-04T00:39:31.785Z,48.38
2019-04-04T00:42:33.760Z,48.28
2019-04-04T00:45:35.671Z,48.56
2019-04-04T00:48:37.715Z,48.64
2019-04-04T00:51:39.669Z,48.67
2019-04-04T00:54:44.640Z,48.63
2019-04-04T00:57:45.673Z,48.61
2019-04-04T01:00:47.627Z,48.54
2019-04-04T01:03:49.554Z,48.56
2019-04-04T01:06:51.511Z,48.60
2019-04-04T01:09:53.427Z,48.71
2019-04-04T01:12:55.404Z,48.72
2019-04-04T01:15:57.311Z,48.82
2019-04-04T01:18:59.629Z,49.07
2019-04-04T01:22:01.560Z,49.30
2019-04-04T01:25:05.473Z,49.80
2019-04-04T01:28:08.121Z,50.11
2019-04-04T01:31:10.749Z,50.32
2019-04-04T01:34:12.674Z,50.36
2019-04-04T01:37:14.637Z,50.67
2019-04-04T01:40:16.779Z,50.49
2019-04-04T01:43:18.720Z,50.58
2019-04-04T01:46:20.687Z,50.46
2019-04-04T01:49:22.669Z,50.29
2019-04-04T01:52:27.734Z,50.27
2019-04-04T01:55:30.505Z,50.36
2019-04-04T01:58:32.456Z,50.56
2019-04-04T02:01:34.391Z,50.76
2019-04-04T02:04:36.364Z,51.04
2019-04-04T02:07:38.317Z,51.30
2019-04-04T02:10:41.474Z,51.25
2019-04-04T02:13:43.447Z,51.30
2019-04-04T02:16:48.511Z,51.37
2019-04-04T02:19:49.353Z,51.41
2019-04-04T02:22:51.652Z,51.33
2019-04-04T02:25:54.663Z,51.50
2019-04-04T02:28:56.604Z,51.79
2019-04-04T02:32:03.076Z,51.65
2019-04-04T02:35:10.306Z,51.80
2019-04-04T02:38:10.923Z,51.68
2019-04-04T02:41:15.539Z,51.78
2019-04-04T02:44:17.110Z,51.85
2019-04-04T02:47:19.087Z,52.11
2019-04-04T02:50:21.085Z,51.92
2019-04-04T02:53:22.995Z,52.33
2019-04-04T02:56:24.915Z,52.38
2019-04-04T02:59:26.861Z,52.45
2019-04-04T03:02:28.864Z,52.13
2019-04-04T03:05:30.924Z,52.04
2019-04-04T03:08:36.550Z,52.18
2019-04-04T03:11:37.748Z,52.31
2019-04-04T03:14:39.663Z,52.66
2019-04-04T03:17:41.665Z,52.69
2019-04-04T03:20:43.810Z,52.73
2019-04-04T03:23:45.780Z,52.68
2019-04-04T03:26:52.298Z,52.50
2019-04-04T03:29:51.545Z,52.28
2019-04-04T03:32:54.967Z,52.60
2019-04-04T03:36:00.130Z,52.68
2019-04-04T03:39:01.401Z,52.91
2019-04-04T03:42:06.959Z,52.81
2019-04-04T03:45:07.336Z,52.75
2019-04-04T03:48:09.260Z,52.77
2019-04-04T03:51:11.275Z,53.01
2019-04-04T03:54:15.147Z,52.95
2019-04-04T03:57:17.355Z,52.93
2019-04-04T04:00:29.541Z,53.07
2019-04-04T04:03:31.574Z,53.26
2019-04-04T04:06:33.516Z,53.34
2019-04-04T04:09:36.838Z,53.34
2019-04-04T04:12:42.599Z,53.41
2019-04-04T04:15:42.728Z,53.46
2019-04-04T04:18:44.686Z,53.43
2019-04-04T04:21:46.802Z,53.45
2019-04-04T04:24:48.715Z,53.91
2019-04-04T04:27:50.784Z,54.21
2019-04-04T04:30:52.828Z,54.34
2019-04-04T04:33:54.926Z,54.79
2019-04-04T04:36:56.876Z,55.10
2019-04-04T04:39:58.838Z,55.35
2019-04-04T04:43:00.999Z,55.55
2019-04-04T04:46:03.115Z,55.41
2019-04-04T04:49:05.060Z,55.61
2019-04-04T04:52:07.080Z,55.81
2019-04-04T04:55:12.018Z,55.94
2019-04-04T04:58:16.105Z,55.70
2019-04-04T05:01:19.031Z,55.37
2019-04-04T05:04:21.385Z,54.62
2019-04-04T05:07:23.491Z,52.70
2019-04-04T05:10:25.525Z,50.50
2019-04-04T05:13:28.869Z,48.92
2019-04-04T05:16:31.428Z,47.52
2019-04-04T05:19:33.423Z,46.42
2019-04-04T05:22:35.674Z,45.55
2019-04-04T05:25:51.673Z,44.38
2019-04-04T05:28:42.119Z,43.91
2019-04-04T05:31:44.759Z,42.86
2019-04-04T05:34:46.700Z,41.95
2019-04-04T05:37:48.720Z,41.20
2019-04-04T05:40:53.260Z,40.71
2019-04-04T05:43:55.906Z,40.09
2019-04-04T05:46:57.817Z,39.52
2019-04-04T05:49:59.785Z,39.04
2019-04-04T05:53:02.117Z,38.15
2019-04-04T05:56:06.419Z,38.35
2019-04-04T05:59:09.041Z,37.88
2019-04-04T06:02:11.418Z,36.86
2019-04-04T06:05:14.111Z,36.87
2019-04-04T06:08:16.095Z,36.31
2019-04-04T06:11:20.847Z,36.01
2019-04-04T06:14:22.004Z,35.66
2019-04-04T06:17:26.924Z,35.38
2019-04-04T06:20:27.841Z,35.90
2019-04-04T06:23:29.915Z,35.09
2019-04-04T06:26:32.003Z,35.21
2019-04-04T06:29:33.983Z,35.72
2019-04-04T06:32:38.707Z,35.38
2019-04-04T06:35:40.127Z,35.39
2019-04-04T06:38:42.396Z,35.00
2019-04-04T06:41:44.376Z,35.15
2019-04-04T06:44:48.041Z,34.83
2019-04-04T06:47:50.044Z,34.03
2019-04-04T06:50:52.009Z,34.17
2019-04-04T06:53:54.554Z,34.31
2019-04-04T06:56:59.062Z,34.05
2019-04-04T07:00:00.664Z,34.43
2019-04-04T07:03:02.658Z,33.22
2019-04-04T07:06:04.633Z,32.44
2019-04-04T07:09:06.851Z,33.34
2019-04-04T07:12:20.336Z,32.71
2019-04-04T07:15:15.723Z,32.98
2019-04-04T07:18:16.755Z,32.88
2019-04-04T07:21:20.192Z,32.14
2019-04-04T07:24:22.705Z,33.20
2019-04-04T07:27:24.727Z,32.88
2019-04-04T07:30:28.424Z,32.16
2019-04-04T07:33:30.661Z,32.96
2019-04-04T07:36:32.652Z,31.76
2019-04-04T07:39:34.587Z,32.07
2019-04-04T07:42:36.511Z,32.76
2019-04-04T07:45:38.479Z,33.28
2019-04-04T07:48:40.469Z,33.21
2019-04-04T07:51:42.432Z,31.93
2019-04-04T07:54:44.489Z,31.53
2019-04-04T07:57:46.430Z,33.18
2019-04-04T08:00:48.954Z,31.95
2019-04-04T08:03:50.994Z,33.38
2019-04-04T08:06:52.913Z,32.09
2019-04-04T08:09:54.964Z,32.64
2019-04-04T08:12:56.974Z,33.06
2019-04-04T08:15:58.919Z,33.66
2019-04-04T08:19:00.878Z,35.16
2019-04-04T08:22:02.978Z,35.29
2019-04-04T08:25:05.259Z,35.62
2019-04-04T08:28:07.192Z,34.81
2019-04-04T08:31:09.928Z,35.79
2019-04-04T08:34:12.276Z,36.08
2019-04-04T08:37:14.252Z,36.03
2019-04-04T08:40:16.227Z,35.53
2019-04-04T08:43:18.275Z,34.46
2019-04-04T08:46:20.348Z,35.04
2019-04-04T08:49:22.479Z,35.21
2019-04-04T08:52:24.390Z,36.38
2019-04-04T08:55:26.481Z,36.11
2019-04-04T08:58:28.391Z,35.42
2019-04-04T09:01:30.757Z,36.00
2019-04-04T09:04:32.727Z,37.42
2019-04-04T09:07:34.714Z,35.97
2019-04-04T09:10:36.741Z,36.26
2019-04-04T09:13:38.750Z,35.68
2019-04-04T09:16:41.733Z,38.05
2019-04-04T09:19:43.733Z,35.71
2019-04-04T09:22:45.668Z,36.32
2019-04-04T09:25:47.806Z,35.39
2019-04-04T09:28:49.797Z,35.73
2019-04-04T09:31:51.677Z,36.09
2019-04-04T09:34:53.681Z,34.76
2019-04-04T09:37:55.636Z,34.95
2019-04-04T09:40:57.672Z,35.37
2019-04-04T09:43:59.674Z,35.22
2019-04-04T09:47:05.721Z,34.54
2019-04-04T09:50:06.783Z,34.92
2019-04-04T09:53:08.748Z,35.66
2019-04-04T09:56:12.011Z,34.39
2019-04-04T09:59:15.067Z,34.78
2019-04-04T10:02:19.924Z,34.45
2019-04-04T10:05:21.884Z,34.05
2019-04-04T10:08:23.917Z,34.41
2019-04-04T10:11:25.880Z,33.28
2019-04-04T10:14:27.809Z,33.79
2019-04-04T10:17:29.764Z,34.89
2019-04-04T10:20:31.747Z,33.43
2019-04-04T10:23:33.709Z,33.51
2019-04-04T10:26:35.846Z,32.42
2019-04-04T10:29:37.877Z,31.54
2019-04-04T10:32:39.895Z,30.97
2019-04-04T10:35:41.906Z,30.21
2019-04-04T10:38:43.860Z,30.30
2019-04-04T10:41:45.752Z,31.28
2019-04-04T10:44:47.779Z,30.10
2019-04-04T10:47:49.713Z,30.36
2019-04-04T10:50:51.723Z,30.76
2019-04-04T10:53:53.677Z,30.78
2019-04-04T10:56:55.719Z,30.83
2019-04-04T10:59:57.681Z,30.62
2019-04-04T11:02:59.913Z,30.11
2019-04-04T11:06:01.802Z,29.99
2019-04-04T11:09:06.434Z,30.44
2019-04-04T11:12:08.407Z,30.29
2019-04-04T11:15:10.364Z,30.12
2019-04-04T11:18:12.312Z,31.06
2019-04-04T11:21:14.556Z,28.32
2019-04-04T11:24:16.746Z,27.28
2019-04-04T11:27:18.895Z,28.09
2019-04-04T11:30:20.947Z,28.83
2019-04-04T11:33:22.894Z,29.28
2019-04-04T11:36:24.894Z,27.83
2019-04-04T11:39:26.850Z,27.28
2019-04-04T11:42:28.870Z,27.79
2019-04-04T11:45:30.850Z,27.34
2019-04-04T11:48:32.890Z,27.81
2019-04-04T11:51:34.816Z,28.54
2019-04-04T11:54:38.688Z,28.67
2019-04-04T11:57:40.730Z,28.49
2019-04-04T12:00:44.566Z,28.95
2019-04-04T12:03:47.179Z,27.89
2019-04-04T12:06:49.184Z,28.07
2019-04-04T12:09:51.110Z,27.43
2019-04-04T12:12:53.055Z,28.80
2019-04-04T12:15:54.957Z,27.81
2019-04-04T12:18:57.011Z,28.25
2019-04-04T12:21:58.914Z,28.06
2019-04-04T12:25:01.479Z,27.62
2019-04-04T12:28:03.630Z,27.87
2019-04-04T12:31:05.650Z,28.59
2019-04-04T12:34:07.605Z,27.52
2019-04-04T12:37:09.563Z,28.11
2019-04-04T12:40:20.403Z,28.03
2019-04-04T12:43:15.554Z,28.54
2019-04-04T12:46:17.534Z,26.30
2019-04-04T12:49:19.500Z,26.34
2019-04-04T12:52:21.728Z,26.34
2019-04-04T12:55:23.727Z,27.49
2019-04-04T12:58:25.771Z,27.49
2019-04-04T13:01:27.761Z,27.49
2019-04-04T13:04:31.871Z,26.96
2019-04-04T13:07:33.562Z,26.93
2019-04-04T13:10:35.565Z,27.66
2019-04-04T13:13:38.338Z,27.66
2019-04-04T13:16:40.950Z,26.81
2019-04-04T13:19:42.864Z,26.15
2019-04-04T13:22:46.153Z,25.61
2019-04-04T13:25:48.125Z,26.43
2019-04-04T13:28:50.263Z,27.03
2019-04-04T13:31:52.253Z,26.29
2019-04-04T13:34:59.492Z,26.29
2019-04-04T13:37:58.172Z,26.28
2019-04-04T13:41:00.141Z,26.83
2019-04-04T13:44:02.118Z,29.72
2019-04-04T13:47:04.343Z,30.17
2019-04-04T13:50:08.095Z,30.17
2019-04-04T13:53:10.169Z,28.34
2019-04-04T13:56:12.171Z,28.82
2019-04-04T13:59:14.198Z,26.09
2019-04-04T14:02:16.180Z,25.95
2019-04-04T14:05:18.168Z,26.06
2019-04-04T14:08:20.155Z,26.06
2019-04-04T14:11:22.171Z,25.70
2019-04-04T14:14:24.127Z,26.21
2019-04-04T14:17:26.813Z,25.76
2019-04-04T14:20:28.774Z,25.25
2019-04-04T14:23:30.775Z,25.19
2019-04-04T14:26:32.743Z,25.19
2019-04-04T14:29:36.252Z,25.04
2019-04-04T14:32:38.251Z,25.04
2019-04-04T14:35:40.504Z,25.03
2019-04-04T14:38:42.577Z,25.98
2019-04-04T14:41:44.530Z,25.98
2019-04-04T14:44:46.536Z,25.61
2019-04-04T14:47:48.536Z,25.22
2019-04-04T14:50:50.507Z,25.35
2019-04-04T14:53:52.530Z,25.58
2019-04-04T14:56:54.449Z,25.45
2019-04-04T14:59:56.540Z,25.86
2019-04-04T15:02:58.436Z,26.91
2019-04-04T15:06:00.463Z,25.65
2019-04-04T15:09:04.775Z,25.84
2019-04-04T15:12:07.030Z,25.63
2019-04-04T15:15:08.996Z,25.82
2019-04-04T15:18:11.030Z,26.03
2019-04-04T15:21:13.974Z,26.06
2019-04-04T15:24:16.084Z,26.17
2019-04-04T15:27:18.115Z,26.26
2019-04-04T15:30:20.883Z,26.47
2019-04-04T15:33:22.830Z,26.65
2019-04-04T15:36:24.850Z,26.77
2019-04-04T15:39:26.832Z,27.25
2019-04-04T15:42:28.887Z,26.28
2019-04-04T15:45:30.839Z,26.31
2019-04-04T15:48:32.873Z,26.31
2019-04-04T15:51:34.857Z,26.55
2019-04-04T15:54:36.899Z,26.76
2019-04-04T15:57:38.851Z,26.12
2019-04-04T16:00:40.939Z,26.27
2019-04-04T16:03:42.849Z,27.00
2019-04-04T16:06:44.829Z,26.77
2019-04-04T16:09:46.755Z,26.72
2019-04-04T16:12:48.768Z,26.86
2019-04-04T16:15:50.727Z,26.68
2019-04-04T16:18:52.728Z,26.94
2019-04-04T16:21:54.642Z,26.62
2019-04-04T16:24:56.654Z,26.69
2019-04-04T16:27:58.598Z,27.19
2019-04-04T16:31:00.812Z,27.29
2019-04-04T16:34:02.733Z,27.31
2019-04-04T16:37:04.770Z,27.58
2019-04-04T16:40:09.289Z,27.62
2019-04-04T16:43:11.767Z,28.12
2019-04-04T16:46:13.695Z,28.05
2019-04-04T16:49:15.689Z,28.24
2019-04-04T16:52:17.631Z,28.57
2019-04-04T16:55:19.644Z,28.92
2019-04-04T16:58:21.572Z,29.66
2019-04-04T17:01:23.610Z,29.81
2019-04-04T17:04:25.641Z,30.46
2019-04-04T17:07:27.611Z,30.87
2019-04-04T17:10:31.518Z,31.24
2019-04-04T17:13:33.484Z,31.77
2019-04-04T17:16:35.464Z,32.22
2019-04-04T17:19:37.444Z,32.14
2019-04-04T17:22:41.183Z,32.70
2019-04-04T17:25:43.519Z,32.71
2019-04-04T17:28:45.766Z,32.82
2019-04-04T17:31:50.284Z,32.98
2019-04-04T17:34:52.613Z,33.26
2019-04-04T17:37:54.609Z,33.93
2019-04-04T17:40:56.971Z,35.36
2019-04-04T17:43:59.101Z,36.32
2019-04-04T17:47:02.126Z,36.65
2019-04-04T17:50:08.955Z,36.87
2019-04-04T17:53:10.994Z,37.50
2019-04-04T17:56:13.357Z,37.09
2019-04-04T17:59:16.838Z,37.51
2019-04-04T18:02:18.983Z,38.06
2019-04-04T18:05:22.536Z,38.67
2019-04-04T18:08:25.899Z,38.71
2019-04-04T18:11:27.859Z,37.52
2019-04-04T18:14:33.802Z,36.79
2019-04-04T18:17:37.182Z,36.41
2019-04-04T18:20:41.382Z,35.68
2019-04-04T18:23:43.377Z,35.44
2019-04-04T18:26:46.434Z,35.60
2019-04-04T18:29:48.654Z,35.84
2019-04-04T18:32:53.342Z,35.90
2019-04-04T18:35:55.828Z,36.67
2019-04-04T18:38:57.803Z,38.18
2019-04-04T18:41:59.786Z,39.80
2019-04-04T18:45:06.118Z,39.99
2019-04-04T18:48:09.910Z,40.06
2019-04-04T18:51:12.784Z,40.39
2019-04-04T18:54:14.750Z,40.64
2019-04-04T18:57:17.324Z,41.12
2019-04-04T19:00:22.990Z,41.13
2019-04-04T19:03:29.577Z,41.03
2019-04-04T19:06:31.426Z,40.63
2019-04-04T19:09:33.783Z,40.52
2019-04-04T19:12:40.679Z,39.91
2019-04-04T19:15:44.633Z,39.49
2019-04-04T19:18:48.941Z,38.65
2019-04-04T19:21:52.814Z,38.12
2019-04-04T19:24:56.953Z,38.01
2019-04-04T19:28:01.931Z,37.85
2019-04-04T19:31:05.951Z,37.73
2019-04-04T19:34:08.411Z,37.76
2019-04-04T19:37:10.432Z,38.11
2019-04-04T19:40:13.915Z,38.84
2019-04-04T19:43:18.155Z,39.40
2019-04-04T19:46:19.866Z,39.29
2019-04-04T19:49:22.399Z,39.74
2019-04-04T19:52:24.961Z,39.47
2019-04-04T19:55:27.050Z,38.84
2019-04-04T19:58:29.432Z,38.45
2019-04-04T20:01:31.531Z,38.13
2019-04-04T20:04:37.024Z,37.74
2019-04-04T20:07:40.122Z,37.48
2019-04-04T20:10:43.373Z,37.20
2019-04-04T20:13:45.348Z,37.06
2019-04-04T20:16:47.906Z,37.07
2019-04-04T20:19:49.874Z,37.12
2019-04-04T20:22:51.826Z,36.85
2019-04-04T20:25:54.358Z,37.14
2019-04-04T20:28:56.313Z,37.48
2019-04-04T20:31:58.320Z,37.79
2019-04-04T20:35:00.411Z,37.96
2019-04-04T20:38:04.097Z,39.11
2019-04-04T20:41:07.887Z,40.37
2019-04-04T20:44:09.865Z,40.70
2019-04-04T20:47:11.895Z,41.17
2019-04-04T20:50:13.789Z,41.43
2019-04-04T20:53:15.760Z,41.99
2019-04-04T20:56:17.735Z,41.76
2019-04-04T20:59:19.740Z,41.87
2019-04-04T21:02:21.643Z,42.42
2019-04-04T21:05:23.787Z,41.98
2019-04-04T21:08:25.779Z,42.08
2019-04-04T21:11:28.710Z,42.06
2019-04-04T21:14:30.644Z,42.59
2019-04-04T21:17:32.666Z,43.07
2019-04-04T21:20:34.579Z,43.51
2019-04-04T21:23:36.602Z,43.71
2019-04-04T21:26:39.627Z,44.01
2019-04-04T21:29:41.678Z,44.20
2019-04-04T21:32:43.575Z,44.09
2019-04-04T21:35:45.716Z,43.93
2019-04-04T21:38:47.652Z,43.95
2019-04-04T21:41:50.984Z,43.63
2019-04-04T21:44:53.006Z,43.77
2019-04-04T21:47:55.031Z,44.28
2019-04-04T21:50:56.960Z,44.73
2019-04-04T21:53:58.882Z,45.48
2019-04-04T21:57:00.794Z,45.74
2019-04-04T22:00:06.195Z,46.07
2019-04-04T22:03:09.954Z,46.47
2019-04-04T22:06:11.979Z,46.76
2019-04-04T22:09:15.711Z,46.50
2019-04-04T22:12:17.808Z,46.58
2019-04-04T22:15:19.795Z,46.59
2019-04-04T22:18:21.832Z,46.55
2019-04-04T22:21:23.782Z,46.31
2019-04-04T22:24:25.750Z,46.48
2019-04-04T22:27:27.739Z,46.52
2019-04-04T22:30:29.746Z,46.43
2019-04-04T22:33:31.707Z,46.33
2019-04-04T22:36:33.859Z,46.04
2019-04-04T22:39:35.834Z,46.19
2019-04-04T22:42:37.871Z,46.37
2019-04-04T22:45:39.910Z,46.47
2019-04-04T22:48:41.931Z,46.30
2019-04-04T22:51:43.866Z,46.30
2019-04-04T22:54:45.911Z,46.00
2019-04-04T22:57:47.831Z,45.89
2019-04-04T23:00:49.878Z,45.67
2019-04-04T23:03:51.792Z,45.62
2019-04-04T23:06:53.904Z,45.84
2019-04-04T23:09:55.821Z,46.21
2019-04-04T23:12:57.747Z,46.36
2019-04-04T23:15:59.713Z,46.27
2019-04-04T23:19:01.722Z,46.37
2019-04-04T23:22:03.679Z,46.52
2019-04-04T23:25:08.761Z,46.76
2019-04-04T23:28:11.618Z,46.87
2019-04-04T23:31:13.633Z,46.94
2019-04-04T23:34:15.555Z,46.88
2019-04-04T23:37:17.761Z,46.96
2019-04-04T23:40:19.666Z,47.14
2019-04-04T23:43:21.672Z,47.12
2019-04-04T23:46:23.627Z,46.83
2019-04-04T23:49:25.591Z,47.22
2019-04-04T23:52:27.642Z,47.06
2019-04-04T23:55:29.636Z,47.26
2019-04-04T23:58:31.556Z,47.54
